Spring Hill Estates, Indiana
Current Conditions -  °F | °C
As of 12:53 AM on Monday 26 Jan 2015 (Local Time) from KHUF Reporting Station
Overcast Overcast  
Wind Chill: 17°   Ceiling: 1900
Heat Index: 27°   Visibility: 10mi
Dew Point: 20°   Wind: 12mph
Humidity: 75%   Direction: 20°NNE
Pressure: 29.9"   Gusts: 23mph
Location:  39.3587°N, 87.4056°W
Report Text: KHUF 260553Z 02010G20KT 10SM OVC019 M03/M07 A2990 RMK AO2 SLP130 I6001 T10281067 10000 21028 51024
Loading
Personal Weather Stations






























Interactive Weather Map New forecast layout! Learn more

10-Day Weather Forecast

Advertisements
Track Severe Weather on mobile